sensor_id;sensor_type;location;lat;lon;timestamp;pressure;altitude;pressure_sealevel;temperature;humidity
10720;BME280;5411;58.386;15.560;2023-03-03T00:01:22;100842.06;;;3.04;86.15
10720;BME280;5411;58.386;15.560;2023-03-03T00:03:52;100841.25;;;3.03;86.12
10720;BME280;5411;58.386;15.560;2023-03-03T00:06:20;100842.34;;;3.01;85.92
10720;BME280;5411;58.386;15.560;2023-03-03T00:08:55;100845.69;;;3.03;85.57
10720;BME280;5411;58.386;15.560;2023-03-03T00:11:24;100865.03;;;3.03;85.81
10720;BME280;5411;58.386;15.560;2023-03-03T00:13:54;100860.56;;;3.04;85.32
10720;BME280;5411;58.386;15.560;2023-03-03T00:16:24;100845.56;;;3.04;85.11
10720;BME280;5411;58.386;15.560;2023-03-03T00:18:54;100846.38;;;3.05;84.66
10720;BME280;5411;58.386;15.560;2023-03-03T00:21:25;100848.84;;;3.06;85.00
10720;BME280;5411;58.386;15.560;2023-03-03T00:24:10;100853.34;;;3.06;84.48
10720;BME280;5411;58.386;15.560;2023-03-03T00:26:41;100849.56;;;3.08;84.32
10720;BME280;5411;58.386;15.560;2023-03-03T00:29:28;100856.50;;;3.09;83.22
10720;BME280;5411;58.386;15.560;2023-03-03T00:32:16;100864.31;;;3.11;81.40
10720;BME280;5411;58.386;15.560;2023-03-03T00:34:46;100859.00;;;3.11;81.93
10720;BME280;5411;58.386;15.560;2023-03-03T00:37:30;100864.03;;;3.14;79.86
10720;BME280;5411;58.386;15.560;2023-03-03T00:40:20;100854.16;;;3.16;79.43
10720;BME280;5411;58.386;15.560;2023-03-03T00:42:52;100850.22;;;3.20;79.17
10720;BME280;5411;58.386;15.560;2023-03-03T00:45:30;100845.09;;;3.18;80.51
10720;BME280;5411;58.386;15.560;2023-03-03T00:48:18;100833.13;;;3.14;81.09
10720;BME280;5411;58.386;15.560;2023-03-03T00:50:48;100838.69;;;3.11;81.68
10720;BME280;5411;58.386;15.560;2023-03-03T00:53:21;100840.13;;;3.06;82.00
10720;BME280;5411;58.386;15.560;2023-03-03T00:55:52;100824.81;;;3.00;82.09
10720;BME280;5411;58.386;15.560;2023-03-03T00:58:21;100828.59;;;2.97;82.45
10720;BME280;5411;58.386;15.560;2023-03-03T01:00:51;100828.84;;;2.94;82.03
10720;BME280;5411;58.386;15.560;2023-03-03T01:03:22;100817.75;;;2.91;82.92
10720;BME280;5411;58.386;15.560;2023-03-03T01:05:51;100823.31;;;2.88;82.55
10720;BME280;5411;58.386;15.560;2023-03-03T01:08:21;100819.84;;;2.87;82.08
10720;BME280;5411;58.386;15.560;2023-03-03T01:10:53;100819.16;;;2.85;81.83
10720;BME280;5411;58.386;15.560;2023-03-03T01:13:25;100820.25;;;2.82;81.90
10720;BME280;5411;58.386;15.560;2023-03-03T01:15:54;100827.50;;;2.80;81.25
10720;BME280;5411;58.386;15.560;2023-03-03T01:18:23;100824.84;;;2.80;80.58
10720;BME280;5411;58.386;15.560;2023-03-03T01:20:51;100830.13;;;2.80;80.52
10720;BME280;5411;58.386;15.560;2023-03-03T01:23:20;100828.75;;;2.76;79.92
10720;BME280;5411;58.386;15.560;2023-03-03T01:25:52;100842.69;;;2.78;79.98
10720;BME280;5411;58.386;15.560;2023-03-03T01:28:21;100828.50;;;2.79;79.57
10720;BME280;5411;58.386;15.560;2023-03-03T01:30:49;100825.00;;;2.79;79.22
10720;BME280;5411;58.386;15.560;2023-03-03T01:33:18;100832.09;;;2.78;78.66
10720;BME280;5411;58.386;15.560;2023-03-03T01:35:46;100817.22;;;2.77;78.87
10720;BME280;5411;58.386;15.560;2023-03-03T01:38:15;100815.41;;;2.78;78.74
10720;BME280;5411;58.386;15.560;2023-03-03T01:40:52;100816.41;;;2.77;79.17
10720;BME280;5411;58.386;15.560;2023-03-03T01:43:22;100813.06;;;2.75;78.51
10720;BME280;5411;58.386;15.560;2023-03-03T01:46:27;100818.34;;;2.75;78.59
10720;BME280;5411;58.386;15.560;2023-03-03T01:49:00;100820.28;;;2.73;78.18
10720;BME280;5411;58.386;15.560;2023-03-03T01:51:37;100815.00;;;2.73;77.76
10720;BME280;5411;58.386;15.560;2023-03-03T01:54:11;100814.31;;;2.71;77.87
10720;BME280;5411;58.386;15.560;2023-03-03T01:56:43;100809.72;;;2.73;77.65
10720;BME280;5411;58.386;15.560;2023-03-03T01:59:14;100799.28;;;2.71;77.79
10720;BME280;5411;58.386;15.560;2023-03-03T02:01:44;100797.63;;;2.70;77.90
10720;BME280;5411;58.386;15.560;2023-03-03T02:04:14;100788.84;;;2.70;77.74
10720;BME280;5411;58.386;15.560;2023-03-03T02:06:49;100789.00;;;2.68;77.61
10720;BME280;5411;58.386;15.560;2023-03-03T02:09:25;100784.56;;;2.69;76.82
10720;BME280;5411;58.386;15.560;2023-03-03T02:12:02;100791.38;;;2.71;76.64
10720;BME280;5411;58.386;15.560;2023-03-03T02:14:32;100793.72;;;2.74;76.14
10720;BME280;5411;58.386;15.560;2023-03-03T02:17:00;100784.84;;;2.75;76.75
10720;BME280;5411;58.386;15.560;2023-03-03T02:19:39;100782.31;;;2.74;76.51
10720;BME280;5411;58.386;15.560;2023-03-03T02:22:10;100778.03;;;2.73;77.08
10720;BME280;5411;58.386;15.560;2023-03-03T02:24:44;100779.81;;;2.72;76.36
10720;BME280;5411;58.386;15.560;2023-03-03T02:27:15;100781.78;;;2.70;76.84
10720;BME280;5411;58.386;15.560;2023-03-03T02:29:43;100782.47;;;2.72;76.88
10720;BME280;5411;58.386;15.560;2023-03-03T02:32:11;100776.47;;;2.70;77.38
10720;BME280;5411;58.386;15.560;2023-03-03T02:34:45;100777.47;;;2.69;76.59
10720;BME280;5411;58.386;15.560;2023-03-03T02:37:14;100764.25;;;2.69;77.33
10720;BME280;5411;58.386;15.560;2023-03-03T02:39:42;100765.09;;;2.70;77.36
10720;BME280;5411;58.386;15.560;2023-03-03T02:42:15;100768.56;;;2.70;76.92
10720;BME280;5411;58.386;15.560;2023-03-03T02:44:46;100774.69;;;2.71;76.70
10720;BME280;5411;58.386;15.560;2023-03-03T02:47:17;100775.66;;;2.70;76.44
10720;BME280;5411;58.386;15.560;2023-03-03T02:49:45;100775.66;;;2.70;76.63
10720;BME280;5411;58.386;15.560;2023-03-03T02:52:13;100778.16;;;2.71;77.07
10720;BME280;5411;58.386;15.560;2023-03-03T02:54:44;100778.28;;;2.70;76.67
10720;BME280;5411;58.386;15.560;2023-03-03T02:57:12;100769.53;;;2.69;76.86
10720;BME280;5411;58.386;15.560;2023-03-03T02:59:42;100769.53;;;2.69;76.41
10720;BME280;5411;58.386;15.560;2023-03-03T03:02:11;100772.03;;;2.71;76.70
10720;BME280;5411;58.386;15.560;2023-03-03T03:04:39;100764.25;;;2.69;76.89
10720;BME280;5411;58.386;15.560;2023-03-03T03:07:08;100766.88;;;2.69;77.74
10720;BME280;5411;58.386;15.560;2023-03-03T03:09:37;100757.59;;;2.65;77.51
10720;BME280;5411;58.386;15.560;2023-03-03T03:12:07;100751.50;;;2.65;77.38
10720;BME280;5411;58.386;15.560;2023-03-03T03:14:35;100758.72;;;2.63;78.47
10720;BME280;5411;58.386;15.560;2023-03-03T03:17:05;100767.63;;;2.62;77.49
10720;BME280;5411;58.386;15.560;2023-03-03T03:19:33;100772.91;;;2.62;78.02
10720;BME280;5411;58.386;15.560;2023-03-03T03:22:02;100770.41;;;2.60;77.93
10720;BME280;5411;58.386;15.560;2023-03-03T03:24:31;100760.81;;;2.59;76.04
10720;BME280;5411;58.386;15.560;2023-03-03T03:26:59;100767.88;;;2.59;76.09
10720;BME280;5411;58.386;15.560;2023-03-03T03:29:27;100772.91;;;2.62;75.86
10720;BME280;5411;58.386;15.560;2023-03-03T03:31:56;100763.03;;;2.64;75.16
10720;BME280;5411;58.386;15.560;2023-03-03T03:34:26;100771.78;;;2.64;74.07
10720;BME280;5411;58.386;15.560;2023-03-03T03:36:54;100765.38;;;2.67;74.23
10720;BME280;5411;58.386;15.560;2023-03-03T03:39:23;100767.88;;;2.68;74.31
10720;BME280;5411;58.386;15.560;2023-03-03T03:41:51;100765.22;;;2.68;74.55
10720;BME280;5411;58.386;15.560;2023-03-03T03:44:20;100753.56;;;2.61;74.59
10720;BME280;5411;58.386;15.560;2023-03-03T03:46:51;100756.78;;;2.65;74.69
10720;BME280;5411;58.386;15.560;2023-03-03T03:49:19;100750.66;;;2.64;73.61
10720;BME280;5411;58.386;15.560;2023-03-03T03:51:49;100741.91;;;2.64;74.25
10720;BME280;5411;58.386;15.560;2023-03-03T03:54:17;100745.50;;;2.63;74.39
10720;BME280;5411;58.386;15.560;2023-03-03T03:56:46;100746.50;;;2.62;74.43
10720;BME280;5411;58.386;15.560;2023-03-03T03:59:17;100739.25;;;2.64;73.58
10720;BME280;5411;58.386;15.560;2023-03-03T04:01:46;100745.38;;;2.64;73.07
10720;BME280;5411;58.386;15.560;2023-03-03T04:04:16;100749.69;;;2.65;73.60
10720;BME280;5411;58.386;15.560;2023-03-03T04:06:46;100743.25;;;2.68;73.32
10720;BME280;5411;58.386;15.560;2023-03-03T04:09:16;100740.63;;;2.68;72.51
10720;BME280;5411;58.386;15.560;2023-03-03T04:11:45;100743.13;;;2.69;73.00
10720;BME280;5411;58.386;15.560;2023-03-03T04:14:17;100737.84;;;2.69;72.64
10720;BME280;5411;58.386;15.560;2023-03-03T04:16:46;100743.81;;;2.71;72.75
10720;BME280;5411;58.386;15.560;2023-03-03T04:19:14;100740.34;;;2.71;73.05
10720;BME280;5411;58.386;15.560;2023-03-03T04:21:43;100743.97;;;2.70;73.36
10720;BME280;5411;58.386;15.560;2023-03-03T04:24:11;100730.22;;;2.66;72.59
10720;BME280;5411;58.386;15.560;2023-03-03T04:26:43;100738.16;;;2.66;73.12
10720;BME280;5411;58.386;15.560;2023-03-03T04:29:13;100729.53;;;2.64;73.47
10720;BME280;5411;58.386;15.560;2023-03-03T04:31:42;100731.34;;;2.64;73.44
10720;BME280;5411;58.386;15.560;2023-03-03T04:34:12;100729.13;;;2.59;73.98
10720;BME280;5411;58.386;15.560;2023-03-03T04:36:41;100740.66;;;2.58;73.16
10720;BME280;5411;58.386;15.560;2023-03-03T04:39:09;100743.44;;;2.57;73.61
10720;BME280;5411;58.386;15.560;2023-03-03T04:41:38;100738.41;;;2.54;73.83
10720;BME280;5411;58.386;15.560;2023-03-03T04:44:07;100737.59;;;2.53;74.06
10720;BME280;5411;58.386;15.560;2023-03-03T04:46:36;100730.66;;;2.52;73.88
10720;BME280;5411;58.386;15.560;2023-03-03T04:49:04;100732.63;;;2.50;73.86
10720;BME280;5411;58.386;15.560;2023-03-03T04:51:37;100732.63;;;2.50;73.90
10720;BME280;5411;58.386;15.560;2023-03-03T04:54:05;100727.59;;;2.47;73.97
10720;BME280;5411;58.386;15.560;2023-03-03T04:56:34;100731.22;;;2.46;74.57
10720;BME280;5411;58.386;15.560;2023-03-03T04:59:02;100733.84;;;2.46;74.34
10720;BME280;5411;58.386;15.560;2023-03-03T05:01:32;100745.41;;;2.45;75.26
10720;BME280;5411;58.386;15.560;2023-03-03T05:04:00;100734.97;;;2.43;75.26
10720;BME280;5411;58.386;15.560;2023-03-03T05:06:29;100725.53;;;2.41;74.71
10720;BME280;5411;58.386;15.560;2023-03-03T05:08:57;100717.59;;;2.41;75.44
10720;BME280;5411;58.386;15.560;2023-03-03T05:11:26;100713.28;;;2.40;75.17
10720;BME280;5411;58.386;15.560;2023-03-03T05:13:54;100709.69;;;2.41;75.78
10720;BME280;5411;58.386;15.560;2023-03-03T05:16:23;100713.16;;;2.41;75.86
10720;BME280;5411;58.386;15.560;2023-03-03T05:18:53;100708.69;;;2.42;75.42
10720;BME280;5411;58.386;15.560;2023-03-03T05:21:22;100702.59;;;2.41;74.79
10720;BME280;5411;58.386;15.560;2023-03-03T05:23:50;100705.22;;;2.41;74.49
10720;BME280;5411;58.386;15.560;2023-03-03T05:26:19;100700.53;;;2.35;74.59
10720;BME280;5411;58.386;15.560;2023-03-03T05:28:48;100699.94;;;2.41;74.59
10720;BME280;5411;58.386;15.560;2023-03-03T05:31:16;100702.59;;;2.41;75.00
10720;BME280;5411;58.386;15.560;2023-03-03T05:33:45;100691.06;;;2.42;74.95
10720;BME280;5411;58.386;15.560;2023-03-03T05:36:15;100691.91;;;2.43;74.71
10720;BME280;5411;58.386;15.560;2023-03-03T05:38:43;100691.06;;;2.42;74.78
10720;BME280;5411;58.386;15.560;2023-03-03T05:41:11;100671.06;;;2.40;74.75
10720;BME280;5411;58.386;15.560;2023-03-03T05:43:40;100684.94;;;2.42;75.09
10720;BME280;5411;58.386;15.560;2023-03-03T05:46:09;100688.56;;;2.41;74.37
10720;BME280;5411;58.386;15.560;2023-03-03T05:48:37;100684.09;;;2.41;74.74
10720;BME280;5411;58.386;15.560;2023-03-03T05:51:06;100677.47;;;2.37;74.91
10720;BME280;5411;58.386;15.560;2023-03-03T05:53:38;100681.78;;;2.38;74.69
10720;BME280;5411;58.386;15.560;2023-03-03T05:56:06;100681.91;;;2.37;74.32
10720;BME280;5411;58.386;15.560;2023-03-03T05:58:38;100678.72;;;2.33;74.73
10720;BME280;5411;58.386;15.560;2023-03-03T06:01:14;100677.75;;;2.34;74.25
10720;BME280;5411;58.386;15.560;2023-03-03T06:03:42;100676.09;;;2.33;74.96
10720;BME280;5411;58.386;15.560;2023-03-03T06:06:11;100681.34;;;2.33;74.89
10720;BME280;5411;58.386;15.560;2023-03-03T06:08:43;100682.88;;;2.36;75.07
10720;BME280;5411;58.386;15.560;2023-03-03T06:11:12;100672.19;;;2.37;74.61
10720;BME280;5411;58.386;15.560;2023-03-03T06:13:43;100674.69;;;2.39;74.87
10720;BME280;5411;58.386;15.560;2023-03-03T06:16:13;100665.63;;;2.41;74.13
10720;BME280;5411;58.386;15.560;2023-03-03T06:18:41;100659.38;;;2.42;74.31
10720;BME280;5411;58.386;15.560;2023-03-03T06:21:10;100660.19;;;2.53;73.75
10720;BME280;5411;58.386;15.560;2023-03-03T06:23:42;100656.13;;;2.58;73.75
10720;BME280;5411;58.386;15.560;2023-03-03T06:26:11;100667.94;;;2.64;73.53
10720;BME280;5411;58.386;15.560;2023-03-03T06:28:39;100655.97;;;2.69;73.59
10720;BME280;5411;58.386;15.560;2023-03-03T06:31:07;100668.69;;;2.83;72.37
10720;BME280;5411;58.386;15.560;2023-03-03T06:33:36;100659.09;;;2.92;73.09
10720;BME280;5411;58.386;15.560;2023-03-03T06:36:05;100648.47;;;3.02;71.93
10720;BME280;5411;58.386;15.560;2023-03-03T06:38:33;100652.84;;;3.11;71.29
10720;BME280;5411;58.386;15.560;2023-03-03T06:41:03;100649.47;;;3.18;70.81
10720;BME280;5411;58.386;15.560;2023-03-03T06:43:34;100651.09;;;3.29;70.78
10720;BME280;5411;58.386;15.560;2023-03-03T06:46:04;100643.22;;;3.37;70.32
10720;BME280;5411;58.386;15.560;2023-03-03T06:48:33;100644.44;;;3.43;70.72
10720;BME280;5411;58.386;15.560;2023-03-03T06:51:04;100649.38;;;3.55;70.18
10720;BME280;5411;58.386;15.560;2023-03-03T06:53:36;100652.91;;;3.64;69.82
10720;BME280;5411;58.386;15.560;2023-03-03T06:56:09;100649.34;;;3.73;69.49
10720;BME280;5411;58.386;15.560;2023-03-03T06:58:38;100640.97;;;3.78;69.66
10720;BME280;5411;58.386;15.560;2023-03-03T07:01:12;100649.00;;;3.86;69.62
10720;BME280;5411;58.386;15.560;2023-03-03T07:03:42;100644.91;;;3.91;69.94
10720;BME280;5411;58.386;15.560;2023-03-03T07:06:19;100640.66;;;3.99;69.09
10720;BME280;5411;58.386;15.560;2023-03-03T07:08:48;100647.97;;;4.05;69.45
10720;BME280;5411;58.386;15.560;2023-03-03T07:11:21;100655.81;;;4.14;68.78
10720;BME280;5411;58.386;15.560;2023-03-03T07:13:51;100636.69;;;4.20;68.85
10720;BME280;5411;58.386;15.560;2023-03-03T07:16:24;100632.13;;;4.30;67.23
10720;BME280;5411;58.386;15.560;2023-03-03T07:18:54;100630.38;;;4.39;66.84
10720;BME280;5411;58.386;15.560;2023-03-03T07:21:30;100621.78;;;4.45;66.29
10720;BME280;5411;58.386;15.560;2023-03-03T07:24:00;100622.97;;;4.51;66.28
10720;BME280;5411;58.386;15.560;2023-03-03T07:26:37;100626.81;;;4.56;65.87
10720;BME280;5411;58.386;15.560;2023-03-03T07:29:18;100628.34;;;4.67;64.90
10720;BME280;5411;58.386;15.560;2023-03-03T07:31:49;100625.06;;;4.73;64.39
10720;BME280;5411;58.386;15.560;2023-03-03T07:34:20;100616.50;;;4.79;65.24
10720;BME280;5411;58.386;15.560;2023-03-03T07:36:51;100622.28;;;4.83;65.58
10720;BME280;5411;58.386;15.560;2023-03-03T07:39:26;100612.38;;;4.85;66.02
10720;BME280;5411;58.386;15.560;2023-03-03T07:42:08;100609.88;;;4.83;65.89
10720;BME280;5411;58.386;15.560;2023-03-03T07:44:41;100612.69;;;4.82;66.28
10720;BME280;5411;58.386;15.560;2023-03-03T07:47:18;100615.16;;;4.75;66.47
10720;BME280;5411;58.386;15.560;2023-03-03T07:49:48;100604.72;;;4.74;67.07
10720;BME280;5411;58.386;15.560;2023-03-03T07:52:28;100597.75;;;4.73;66.09
10720;BME280;5411;58.386;15.560;2023-03-03T07:55:00;100596.06;;;4.72;66.15
10720;BME280;5411;58.386;15.560;2023-03-03T07:57:35;100585.31;;;4.73;66.49
10720;BME280;5411;58.386;15.560;2023-03-03T08:03:20;100583.22;;;4.85;66.21
10720;BME280;5411;58.386;15.560;2023-03-03T08:05:50;100573.28;;;4.87;65.32
10720;BME280;5411;58.386;15.560;2023-03-03T08:08:27;100587.38;;;4.95;65.16
10720;BME280;5411;58.386;15.560;2023-03-03T08:10:58;100584.09;;;5.01;65.32
10720;BME280;5411;58.386;15.560;2023-03-03T08:13:36;100581.13;;;5.13;64.50
10720;BME280;5411;58.386;15.560;2023-03-03T08:16:23;100582.50;;;5.25;63.78
10720;BME280;5411;58.386;15.560;2023-03-03T08:18:54;100567.75;;;5.38;64.13
10720;BME280;5411;58.386;15.560;2023-03-03T08:21:25;100566.44;;;5.51;63.50
10720;BME280;5411;58.386;15.560;2023-03-03T08:23:54;100564.44;;;5.61;63.21
10720;BME280;5411;58.386;15.560;2023-03-03T08:26:24;100550.03;;;5.71;64.41
10720;BME280;5411;58.386;15.560;2023-03-03T08:28:54;100562.78;;;5.76;64.43
10720;BME280;5411;58.386;15.560;2023-03-03T08:31:23;100552.16;;;5.76;64.46
10720;BME280;5411;58.386;15.560;2023-03-03T08:34:07;100539.75;;;5.85;63.87
10720;BME280;5411;58.386;15.560;2023-03-03T08:36:35;100529.13;;;5.93;62.90
10720;BME280;5411;58.386;15.560;2023-03-03T08:39:04;100537.91;;;6.01;63.18
10720;BME280;5411;58.386;15.560;2023-03-03T08:41:32;100532.25;;;6.04;62.43
10720;BME280;5411;58.386;15.560;2023-03-03T08:44:03;100536.72;;;6.20;61.38
10720;BME280;5411;58.386;15.560;2023-03-03T08:46:31;100527.03;;;6.35;62.39
10720;BME280;5411;58.386;15.560;2023-03-03T08:49:01;100523.97;;;6.55;60.41
10720;BME280;5411;58.386;15.560;2023-03-03T08:51:32;100521.22;;;6.71;60.59
10720;BME280;5411;58.386;15.560;2023-03-03T08:54:01;100514.84;;;6.80;58.23
10720;BME280;5411;58.386;15.560;2023-03-03T08:56:29;100533.13;;;6.83;57.02
10720;BME280;5411;58.386;15.560;2023-03-03T08:59:04;100519.16;;;6.81;56.52
10720;BME280;5411;58.386;15.560;2023-03-03T09:01:33;100518.56;;;6.79;56.44
10720;BME280;5411;58.386;15.560;2023-03-03T09:04:02;100519.97;;;6.90;58.07
10720;BME280;5411;58.386;15.560;2023-03-03T09:06:30;100528.31;;;6.87;57.39
10720;BME280;5411;58.386;15.560;2023-03-03T09:08:58;100522.97;;;6.87;56.82
10720;BME280;5411;58.386;15.560;2023-03-03T09:11:28;100516.84;;;6.86;57.44
10720;BME280;5411;58.386;15.560;2023-03-03T09:14:05;100519.44;;;6.94;58.49
10720;BME280;5411;58.386;15.560;2023-03-03T09:16:40;100525.06;;;6.99;56.42
10720;BME280;5411;58.386;15.560;2023-03-03T09:19:22;100521.06;;;7.03;57.50
10720;BME280;5411;58.386;15.560;2023-03-03T09:21:51;100510.03;;;7.06;56.73
10720;BME280;5411;58.386;15.560;2023-03-03T09:24:25;100512.91;;;7.05;55.94
10720;BME280;5411;58.386;15.560;2023-03-03T09:26:54;100519.41;;;7.02;55.29
10720;BME280;5411;58.386;15.560;2023-03-03T09:29:26;100510.09;;;6.98;54.72
10720;BME280;5411;58.386;15.560;2023-03-03T09:31:57;100494.97;;;6.99;54.04
10720;BME280;5411;58.386;15.560;2023-03-03T09:34:37;100500.38;;;7.13;54.51
10720;BME280;5411;58.386;15.560;2023-03-03T09:37:19;100481.66;;;7.22;54.30
10720;BME280;5411;58.386;15.560;2023-03-03T09:39:50;100490.72;;;7.35;53.97
10720;BME280;5411;58.386;15.560;2023-03-03T09:42:40;100493.78;;;7.47;53.36
10720;BME280;5411;58.386;15.560;2023-03-03T09:45:39;100478.97;;;7.67;53.30
10720;BME280;5411;58.386;15.560;2023-03-03T09:54:03;100473.56;;;7.75;50.92
10720;BME280;5411;58.386;15.560;2023-03-03T09:56:38;100461.25;;;7.74;50.08
10720;BME280;5411;58.386;15.560;2023-03-03T09:59:27;100455.47;;;7.71;49.66
10720;BME280;5411;58.386;15.560;2023-03-03T10:02:12;100456.66;;;7.68;48.81
10720;BME280;5411;58.386;15.560;2023-03-03T10:05:15;100445.66;;;7.71;48.35
10720;BME280;5411;58.386;15.560;2023-03-03T10:07:58;100436.63;;;7.72;48.66
10720;BME280;5411;58.386;15.560;2023-03-03T10:10:49;100437.19;;;7.82;49.44
10720;BME280;5411;58.386;15.560;2023-03-03T10:16:40;100429.94;;;7.76;48.69
10720;BME280;5411;58.386;15.560;2023-03-03T10:19:26;100418.63;;;7.74;48.91
10720;BME280;5411;58.386;15.560;2023-03-03T10:22:12;100407.78;;;7.76;48.84
10720;BME280;5411;58.386;15.560;2023-03-03T10:24:56;100402.59;;;7.82;49.46
10720;BME280;5411;58.386;15.560;2023-03-03T10:27:47;100403.22;;;7.84;48.38
10720;BME280;5411;58.386;15.560;2023-03-03T10:30:26;100408.56;;;7.84;48.36
10720;BME280;5411;58.386;15.560;2023-03-03T10:33:12;100401.56;;;7.83;48.87
10720;BME280;5411;58.386;15.560;2023-03-03T10:36:03;100387.50;;;7.75;48.87
10720;BME280;5411;58.386;15.560;2023-03-03T10:38:51;100388.34;;;7.75;49.31
10720;BME280;5411;58.386;15.560;2023-03-03T10:41:38;100368.13;;;7.66;48.91
10720;BME280;5411;58.386;15.560;2023-03-03T10:44:30;100363.53;;;7.60;47.80
10720;BME280;5411;58.386;15.560;2023-03-03T10:47:25;100367.66;;;7.63;48.30
10720;BME280;5411;58.386;15.560;2023-03-03T10:50:04;100357.03;;;7.63;49.47
10720;BME280;5411;58.386;15.560;2023-03-03T10:52:45;100359.88;;;7.61;49.68
10720;BME280;5411;58.386;15.560;2023-03-03T10:55:33;100351.81;;;7.69;49.68
10720;BME280;5411;58.386;15.560;2023-03-03T10:58:22;100343.53;;;7.79;49.66
10720;BME280;5411;58.386;15.560;2023-03-03T11:01:03;100330.66;;;7.82;49.62
10720;BME280;5411;58.386;15.560;2023-03-03T11:06:41;100292.91;;;7.79;48.61
10720;BME280;5411;58.386;15.560;2023-03-03T11:09:23;100287.44;;;7.66;47.84
10720;BME280;5411;58.386;15.560;2023-03-03T11:12:01;100272.19;;;7.60;48.83
10720;BME280;5411;58.386;15.560;2023-03-03T11:14:35;100256.66;;;7.63;49.74
10720;BME280;5411;58.386;15.560;2023-03-03T11:17:16;100239.97;;;7.69;49.57
10720;BME280;5411;58.386;15.560;2023-03-03T11:19:58;100250.63;;;7.69;48.68
10720;BME280;5411;58.386;15.560;2023-03-03T11:22:33;100241.97;;;7.67;49.10
10720;BME280;5411;58.386;15.560;2023-03-03T11:25:18;100232.88;;;7.76;48.81
10720;BME280;5411;58.386;15.560;2023-03-03T11:27:59;100220.28;;;7.85;49.26
10720;BME280;5411;58.386;15.560;2023-03-03T11:33:31;100210.38;;;8.00;48.15
10720;BME280;5411;58.386;15.560;2023-03-03T11:36:09;100210.44;;;8.07;47.49
10720;BME280;5411;58.386;15.560;2023-03-03T11:38:46;100199.59;;;8.08;45.65
10720;BME280;5411;58.386;15.560;2023-03-03T11:41:27;100208.25;;;8.10;45.94
10720;BME280;5411;58.386;15.560;2023-03-03T11:44:17;100207.91;;;8.20;44.99
10720;BME280;5411;58.386;15.560;2023-03-03T11:46:53;100203.84;;;8.24;46.42
10720;BME280;5411;58.386;15.560;2023-03-03T11:49:28;100206.94;;;8.28;45.68
10720;BME280;5411;58.386;15.560;2023-03-03T11:52:10;100166.59;;;8.31;45.74
10720;BME280;5411;58.386;15.560;2023-03-03T11:54:45;100185.53;;;8.36;46.63
10720;BME280;5411;58.386;15.560;2023-03-03T11:57:19;100179.41;;;8.42;46.28
10720;BME280;5411;58.386;15.560;2023-03-03T11:59:59;100173.50;;;8.46;46.00
10720;BME280;5411;58.386;15.560;2023-03-03T12:02:40;100175.72;;;8.43;46.16
10720;BME280;5411;58.386;15.560;2023-03-03T12:05:19;100161.75;;;8.41;47.18
10720;BME280;5411;58.386;15.560;2023-03-03T12:08:00;100159.91;;;8.41;46.63
10720;BME280;5411;58.386;15.560;2023-03-03T12:10:40;100143.94;;;8.41;46.31
10720;BME280;5411;58.386;15.560;2023-03-03T12:13:15;100127.31;;;8.39;45.03
10720;BME280;5411;58.386;15.560;2023-03-03T12:15:53;100115.41;;;8.35;45.30
10720;BME280;5411;58.386;15.560;2023-03-03T12:18:48;100110.06;;;8.35;45.86
10720;BME280;5411;58.386;15.560;2023-03-03T12:21:30;100096.56;;;8.37;46.21
10720;BME280;5411;58.386;15.560;2023-03-03T12:24:11;100092.03;;;8.37;45.81
10720;BME280;5411;58.386;15.560;2023-03-03T12:26:48;100093.88;;;8.37;44.70
10720;BME280;5411;58.386;15.560;2023-03-03T12:29:25;100085.63;;;8.32;44.72
10720;BME280;5411;58.386;15.560;2023-03-03T12:32:03;100081.97;;;8.33;45.66
10720;BME280;5411;58.386;15.560;2023-03-03T12:34:41;100089.47;;;8.29;45.65
10720;BME280;5411;58.386;15.560;2023-03-03T12:37:22;100082.09;;;8.25;44.72
10720;BME280;5411;58.386;15.560;2023-03-03T12:40:05;100083.50;;;8.27;43.32
10720;BME280;5411;58.386;15.560;2023-03-03T12:42:47;100083.94;;;8.24;42.65
10720;BME280;5411;58.386;15.560;2023-03-03T12:45:35;100072.63;;;8.22;42.36
10720;BME280;5411;58.386;15.560;2023-03-03T12:48:11;100063.63;;;8.23;42.54
10720;BME280;5411;58.386;15.560;2023-03-03T12:50:53;100047.81;;;8.21;42.94
10720;BME280;5411;58.386;15.560;2023-03-03T12:53:42;100047.44;;;8.25;42.24
10720;BME280;5411;58.386;15.560;2023-03-03T12:56:18;100036.34;;;8.21;42.69
10720;BME280;5411;58.386;15.560;2023-03-03T12:58:59;100016.44;;;8.17;41.61
10720;BME280;5411;58.386;15.560;2023-03-03T13:01:51;100023.97;;;8.13;41.90
10720;BME280;5411;58.386;15.560;2023-03-03T13:04:30;100018.66;;;8.13;41.46
10720;BME280;5411;58.386;15.560;2023-03-03T13:07:06;100012.50;;;8.13;41.96
10720;BME280;5411;58.386;15.560;2023-03-03T13:09:50;99994.28;;;8.16;42.16
10720;BME280;5411;58.386;15.560;2023-03-03T13:12:35;99989.78;;;8.17;42.01
10720;BME280;5411;58.386;15.560;2023-03-03T13:15:12;99990.41;;;8.19;41.67
10720;BME280;5411;58.386;15.560;2023-03-03T13:17:52;99969.28;;;8.17;41.51
10720;BME280;5411;58.386;15.560;2023-03-03T13:20:32;99973.00;;;8.23;42.41
10720;BME280;5411;58.386;15.560;2023-03-03T13:23:07;99964.81;;;8.25;41.40
10720;BME280;5411;58.386;15.560;2023-03-03T13:25:46;99947.00;;;8.25;41.72
10720;BME280;5411;58.386;15.560;2023-03-03T13:28:25;99938.59;;;8.28;42.20
10720;BME280;5411;58.386;15.560;2023-03-03T13:31:01;99925.06;;;8.30;41.56
10720;BME280;5411;58.386;15.560;2023-03-03T13:33:33;99930.66;;;8.35;42.28
10720;BME280;5411;58.386;15.560;2023-03-03T13:36:07;99919.59;;;8.38;41.87
10720;BME280;5411;58.386;15.560;2023-03-03T13:38:40;99925.16;;;8.43;42.27
10720;BME280;5411;58.386;15.560;2023-03-03T13:41:16;99919.63;;;8.44;42.74
10720;BME280;5411;58.386;15.560;2023-03-03T13:43:51;99918.41;;;8.47;42.57
10720;BME280;5411;58.386;15.560;2023-03-03T13:46:33;99915.16;;;8.51;42.75
10720;BME280;5411;58.386;15.560;2023-03-03T13:49:25;99910.00;;;8.50;42.36
10720;BME280;5411;58.386;15.560;2023-03-03T13:52:02;99895.63;;;8.44;43.76
10720;BME280;5411;58.386;15.560;2023-03-03T13:54:50;99919.66;;;8.51;43.69